sensor_id;sensor_type;location;lat;lon;timestamp;pressure;altitude;pressure_sealevel;temperature
19102;BMP280;9683;49.028;12.064;2023-11-19T00:02:07;97310.19;;;8.21
19102;BMP280;9683;49.028;12.064;2023-11-19T00:04:36;97296.78;;;8.16
19102;BMP280;9683;49.028;12.064;2023-11-19T00:07:05;97289.22;;;8.20
19102;BMP280;9683;49.028;12.064;2023-11-19T00:09:33;97270.06;;;8.05
19102;BMP280;9683;49.028;12.064;2023-11-19T00:12:03;97292.06;;;8.18
19102;BMP280;9683;49.028;12.064;2023-11-19T00:14:30;97280.88;;;8.16
19102;BMP280;9683;49.028;12.064;2023-11-19T00:16:56;97272.09;;;8.16
19102;BMP280;9683;49.028;12.064;2023-11-19T00:19:23;97276.97;;;8.19
19102;BMP280;9683;49.028;12.064;2023-11-19T00:21:49;97274.53;;;8.17
19102;BMP280;9683;49.028;12.064;2023-11-19T00:24:17;97264.97;;;8.16
19102;BMP280;9683;49.028;12.064;2023-11-19T00:26:44;97244.81;;;8.02
19102;BMP280;9683;49.028;12.064;2023-11-19T00:29:10;97253.94;;;8.13
19102;BMP280;9683;49.028;12.064;2023-11-19T00:31:39;97256.22;;;8.09
19102;BMP280;9683;49.028;12.064;2023-11-19T00:34:05;97251.91;;;8.08
19102;BMP280;9683;49.028;12.064;2023-11-19T00:36:32;97253.34;;;8.11
19102;BMP280;9683;49.028;12.064;2023-11-19T00:38:58;97254.78;;;8.13
19102;BMP280;9683;49.028;12.064;2023-11-19T00:41:26;97244.56;;;8.17
19102;BMP280;9683;49.028;12.064;2023-11-19T00:43:52;97236.22;;;8.13
19102;BMP280;9683;49.028;12.064;2023-11-19T00:46:19;97238.28;;;8.11
19102;BMP280;9683;49.028;12.064;2023-11-19T00:48:47;97233.56;;;8.13
19102;BMP280;9683;49.028;12.064;2023-11-19T00:51:14;97243.34;;;8.13
19102;BMP280;9683;49.028;12.064;2023-11-19T00:53:40;97235.41;;;8.13
19102;BMP280;9683;49.028;12.064;2023-11-19T00:56:07;97231.53;;;8.09
19102;BMP280;9683;49.028;12.064;2023-11-19T00:58:35;97231.53;;;8.15
19102;BMP280;9683;49.028;12.064;2023-11-19T01:01:02;97229.09;;;8.14
19102;BMP280;9683;49.028;12.064;2023-11-19T01:03:30;97216.47;;;8.16
19102;BMP280;9683;49.028;12.064;2023-11-19T01:05:58;97221.53;;;8.17
19102;BMP280;9683;49.028;12.064;2023-11-19T01:08:25;97220.72;;;8.17
19102;BMP280;9683;49.028;12.064;2023-11-19T01:10:51;97219.72;;;8.18
19102;BMP280;9683;49.028;12.064;2023-11-19T01:13:18;97226.63;;;8.19
19102;BMP280;9683;49.028;12.064;2023-11-19T01:15:46;97217.69;;;8.20
19102;BMP280;9683;49.028;12.064;2023-11-19T01:18:13;97190.81;;;8.03
19102;BMP280;9683;49.028;12.064;2023-11-19T01:20:39;97208.91;;;8.13
19102;BMP280;9683;49.028;12.064;2023-11-19T01:23:06;97206.09;;;8.08
19102;BMP280;9683;49.028;12.064;2023-11-19T01:25:33;97204.03;;;8.10
19102;BMP280;9683;49.028;12.064;2023-11-19T01:28:00;97210.97;;;8.11
19102;BMP280;9683;49.028;12.064;2023-11-19T01:30:27;97192.22;;;8.06
19102;BMP280;9683;49.028;12.064;2023-11-19T01:32:55;97202.59;;;8.14
19102;BMP280;9683;49.028;12.064;2023-11-19T01:35:22;97197.91;;;8.09
19102;BMP280;9683;49.028;12.064;2023-11-19T01:37:48;97187.34;;;7.96
19102;BMP280;9683;49.028;12.064;2023-11-19T01:40:20;97176.97;;;8.08
19102;BMP280;9683;49.028;12.064;2023-11-19T01:42:46;97181.44;;;8.07
19102;BMP280;9683;49.028;12.064;2023-11-19T01:45:22;97192.44;;;8.11
19102;BMP280;9683;49.028;12.064;2023-11-19T01:47:53;97193.25;;;8.05
19102;BMP280;9683;49.028;12.064;2023-11-19T01:50:21;97177.97;;;8.07
19102;BMP280;9683;49.028;12.064;2023-11-19T01:52:48;97176.53;;;8.04
19102;BMP280;9683;49.028;12.064;2023-11-19T01:55:15;97172.06;;;8.05
19102;BMP280;9683;49.028;12.064;2023-11-19T01:57:41;97152.13;;;7.89
19102;BMP280;9683;49.028;12.064;2023-11-19T02:00:09;97174.75;;;7.98
19102;BMP280;9683;49.028;12.064;2023-11-19T02:02:37;97182.88;;;7.97
19102;BMP280;9683;49.028;12.064;2023-11-19T02:05:05;97180.84;;;7.99
19102;BMP280;9683;49.028;12.064;2023-11-19T02:07:33;97168.19;;;8.01
19102;BMP280;9683;49.028;12.064;2023-11-19T02:10:00;97173.72;;;7.99
19102;BMP280;9683;49.028;12.064;2023-11-19T02:12:27;97162.31;;;7.99
19102;BMP280;9683;49.028;12.064;2023-11-19T02:14:54;97175.56;;;7.99
19102;BMP280;9683;49.028;12.064;2023-11-19T02:17:27;97166.97;;;8.03
19102;BMP280;9683;49.028;12.064;2023-11-19T02:19:53;97152.72;;;7.98
19102;BMP280;9683;49.028;12.064;2023-11-19T02:22:20;97148.44;;;7.97
19102;BMP280;9683;49.028;12.064;2023-11-19T02:24:50;97156.38;;;7.97
19102;BMP280;9683;49.028;12.064;2023-11-19T02:27:25;97146.63;;;7.97
19102;BMP280;9683;49.028;12.064;2023-11-19T02:29:55;97138.28;;;7.94
19102;BMP280;9683;49.028;12.064;2023-11-19T02:32:23;97132.38;;;7.92
19102;BMP280;9683;49.028;12.064;2023-11-19T02:34:50;97120.38;;;7.89
19102;BMP280;9683;49.028;12.064;2023-11-19T02:37:18;97111.59;;;7.89
19102;BMP280;9683;49.028;12.064;2023-11-19T02:39:45;97105.28;;;7.90
19102;BMP280;9683;49.028;12.064;2023-11-19T02:42:12;97098.16;;;7.90
19102;BMP280;9683;49.028;12.064;2023-11-19T02:44:38;97080.22;;;7.92
19102;BMP280;9683;49.028;12.064;2023-11-19T02:47:06;97075.97;;;7.91
19102;BMP280;9683;49.028;12.064;2023-11-19T02:49:33;97081.41;;;7.96
19102;BMP280;9683;49.028;12.064;2023-11-19T02:51:59;97081.22;;;7.98
19102;BMP280;9683;49.028;12.064;2023-11-19T02:54:26;97088.16;;;7.99
19102;BMP280;9683;49.028;12.064;2023-11-19T02:56:53;97083.47;;;7.94
19102;BMP280;9683;49.028;12.064;2023-11-19T02:59:24;97092.00;;;7.96
19102;BMP280;9683;49.028;12.064;2023-11-19T03:01:53;97092.00;;;7.96
19102;BMP280;9683;49.028;12.064;2023-11-19T03:04:21;97081.41;;;7.96
19102;BMP280;9683;49.028;12.064;2023-11-19T03:06:48;97094.84;;;8.01
19102;BMP280;9683;49.028;12.064;2023-11-19T03:09:15;97084.25;;;8.01
19102;BMP280;9683;49.028;12.064;2023-11-19T03:11:41;97089.94;;;8.05
19102;BMP280;9683;49.028;12.064;2023-11-19T03:14:08;97048.50;;;7.79
19102;BMP280;9683;49.028;12.064;2023-11-19T03:16:34;97092.56;;;8.11
19102;BMP280;9683;49.028;12.064;2023-11-19T03:19:01;97089.94;;;8.11
19102;BMP280;9683;49.028;12.064;2023-11-19T03:21:31;97085.44;;;8.12
19102;BMP280;9683;49.028;12.064;2023-11-19T03:23:57;97082.81;;;8.05
19102;BMP280;9683;49.028;12.064;2023-11-19T03:26:25;97080.78;;;8.01
19102;BMP280;9683;49.028;12.064;2023-11-19T03:28:52;97079.59;;;7.97
19102;BMP280;9683;49.028;12.064;2023-11-19T03:31:18;97074.91;;;7.92
19102;BMP280;9683;49.028;12.064;2023-11-19T03:33:45;97069.84;;;7.91
19102;BMP280;9683;49.028;12.064;2023-11-19T03:36:12;97068.00;;;7.91
19102;BMP280;9683;49.028;12.064;2023-11-19T03:38:40;97062.88;;;7.96
19102;BMP280;9683;49.028;12.064;2023-11-19T03:41:10;97068.78;;;7.98
19102;BMP280;9683;49.028;12.064;2023-11-19T03:43:37;97064.72;;;7.96
19102;BMP280;9683;49.028;12.064;2023-11-19T03:46:04;97067.34;;;7.96
19102;BMP280;9683;49.028;12.064;2023-11-19T03:48:31;97066.38;;;7.90
19102;BMP280;9683;49.028;12.064;2023-11-19T03:50:58;97064.75;;;7.89
19102;BMP280;9683;49.028;12.064;2023-11-19T03:53:24;97063.94;;;7.89
19102;BMP280;9683;49.028;12.064;2023-11-19T03:55:52;97064.72;;;7.96
19102;BMP280;9683;49.028;12.064;2023-11-19T03:58:18;97076.94;;;7.97
19102;BMP280;9683;49.028;12.064;2023-11-19T04:00:45;97061.88;;;7.97
19102;BMP280;9683;49.028;12.064;2023-11-19T04:03:11;97063.88;;;8.02
19102;BMP280;9683;49.028;12.064;2023-11-19T04:05:38;97067.34;;;8.02
19102;BMP280;9683;49.028;12.064;2023-11-19T04:08:04;97068.56;;;8.00
19102;BMP280;9683;49.028;12.064;2023-11-19T04:10:31;97032.00;;;7.77
19102;BMP280;9683;49.028;12.064;2023-11-19T04:12:59;97073.47;;;7.96
19102;BMP280;9683;49.028;12.064;2023-11-19T04:15:26;97067.78;;;7.93
19102;BMP280;9683;49.028;12.064;2023-11-19T04:17:53;97054.78;;;7.91
19102;BMP280;9683;49.028;12.064;2023-11-19T04:20:19;97058.06;;;7.87
19102;BMP280;9683;49.028;12.064;2023-11-19T04:22:46;97056.03;;;7.82
19102;BMP280;9683;49.028;12.064;2023-11-19T04:25:12;97048.91;;;7.82
19102;BMP280;9683;49.028;12.064;2023-11-19T04:27:40;97047.47;;;7.80
19102;BMP280;9683;49.028;12.064;2023-11-19T04:30:08;97044.25;;;7.78
19102;BMP280;9683;49.028;12.064;2023-11-19T04:32:36;97041.59;;;7.71
19102;BMP280;9683;49.028;12.064;2023-11-19T04:35:03;97036.69;;;7.75
19102;BMP280;9683;49.028;12.064;2023-11-19T04:37:29;97036.69;;;7.75
19102;BMP280;9683;49.028;12.064;2023-11-19T04:39:55;97028.56;;;7.76
19102;BMP280;9683;49.028;12.064;2023-11-19T04:42:22;97020.81;;;7.75
19102;BMP280;9683;49.028;12.064;2023-11-19T04:44:49;97016.56;;;7.74
19102;BMP280;9683;49.028;12.064;2023-11-19T04:47:17;97012.88;;;7.75
19102;BMP280;9683;49.028;12.064;2023-11-19T04:49:43;96982.38;;;7.66
19102;BMP280;9683;49.028;12.064;2023-11-19T04:52:10;96978.13;;;7.65
19102;BMP280;9683;49.028;12.064;2023-11-19T04:54:40;96962.00;;;7.66
19102;BMP280;9683;49.028;12.064;2023-11-19T04:57:07;96946.38;;;7.58
19102;BMP280;9683;49.028;12.064;2023-11-19T04:59:34;96932.78;;;7.48
19102;BMP280;9683;49.028;12.064;2023-11-19T05:02:01;96955.66;;;7.36
19102;BMP280;9683;49.028;12.064;2023-11-19T05:04:30;96963.34;;;7.37
19102;BMP280;9683;49.028;12.064;2023-11-19T05:06:57;96985.97;;;7.40
19102;BMP280;9683;49.028;12.064;2023-11-19T05:09:23;96982.06;;;7.43
19102;BMP280;9683;49.028;12.064;2023-11-19T05:11:50;96984.69;;;7.49
19102;BMP280;9683;49.028;12.064;2023-11-19T05:14:17;96997.91;;;7.49
19102;BMP280;9683;49.028;12.064;2023-11-19T05:16:43;96995.69;;;7.46
19102;BMP280;9683;49.028;12.064;2023-11-19T05:19:10;96999.97;;;7.47
19102;BMP280;9683;49.028;12.064;2023-11-19T05:21:38;96997.72;;;7.51
19102;BMP280;9683;49.028;12.064;2023-11-19T05:24:05;97003.38;;;7.54
19102;BMP280;9683;49.028;12.064;2023-11-19T05:26:31;97020.06;;;7.61
19102;BMP280;9683;49.028;12.064;2023-11-19T05:28:58;97014.31;;;7.71
19102;BMP280;9683;49.028;12.064;2023-11-19T05:31:24;97010.22;;;7.75
19102;BMP280;9683;49.028;12.064;2023-11-19T05:33:52;97010.22;;;7.75
19102;BMP280;9683;49.028;12.064;2023-11-19T05:36:18;97019.22;;;7.74
19102;BMP280;9683;49.028;12.064;2023-11-19T05:38:46;97011.25;;;7.74
19102;BMP280;9683;49.028;12.064;2023-11-19T05:41:13;97005.75;;;7.75
19102;BMP280;9683;49.028;12.064;2023-11-19T05:43:40;97023.25;;;7.76
19102;BMP280;9683;49.028;12.064;2023-11-19T05:46:07;97019.38;;;7.79
19102;BMP280;9683;49.028;12.064;2023-11-19T05:48:34;97015.50;;;7.75
19102;BMP280;9683;49.028;12.064;2023-11-19T05:51:00;97014.13;;;7.72
19102;BMP280;9683;49.028;12.064;2023-11-19T05:53:28;97005.16;;;7.73
19102;BMP280;9683;49.028;12.064;2023-11-19T05:55:56;97011.25;;;7.74
19102;BMP280;9683;49.028;12.064;2023-11-19T05:58:23;96969.41;;;7.51
19102;BMP280;9683;49.028;12.064;2023-11-19T06:00:52;96990.97;;;7.61
19102;BMP280;9683;49.028;12.064;2023-11-19T06:03:18;96985.22;;;7.64
19102;BMP280;9683;49.028;12.064;2023-11-19T06:05:46;96970.63;;;7.55
19102;BMP280;9683;49.028;12.064;2023-11-19T06:08:13;96993.38;;;7.63
19102;BMP280;9683;49.028;12.064;2023-11-19T06:10:40;96984.22;;;7.59
19102;BMP280;9683;49.028;12.064;2023-11-19T06:13:08;96988.72;;;7.58
19102;BMP280;9683;49.028;12.064;2023-11-19T06:15:36;96972.25;;;7.50
19102;BMP280;9683;49.028;12.064;2023-11-19T06:18:03;96982.03;;;7.56
19102;BMP280;9683;49.028;12.064;2023-11-19T06:20:32;96986.28;;;7.57
19102;BMP280;9683;49.028;12.064;2023-11-19T06:22:59;96979.16;;;7.57
19102;BMP280;9683;49.028;12.064;2023-11-19T06:25:26;96977.72;;;7.61
19102;BMP280;9683;49.028;12.064;2023-11-19T06:27:53;96976.91;;;7.61
19102;BMP280;9683;49.028;12.064;2023-11-19T06:30:21;96985.66;;;7.61
19102;BMP280;9683;49.028;12.064;2023-11-19T06:32:47;96983.41;;;7.58
19102;BMP280;9683;49.028;12.064;2023-11-19T06:35:14;96968.78;;;7.56
19102;BMP280;9683;49.028;12.064;2023-11-19T06:37:41;96984.47;;;7.57
19102;BMP280;9683;49.028;12.064;2023-11-19T06:40:08;96993.38;;;7.63
19102;BMP280;9683;49.028;12.064;2023-11-19T06:42:35;96990.72;;;7.63
19102;BMP280;9683;49.028;12.064;2023-11-19T06:45:02;96970.41;;;7.57
19102;BMP280;9683;49.028;12.064;2023-11-19T06:47:31;96994.38;;;7.68
19102;BMP280;9683;49.028;12.064;2023-11-19T06:49:58;96992.53;;;7.69
19102;BMP280;9683;49.028;12.064;2023-11-19T06:52:25;96973.41;;;7.67
19102;BMP280;9683;49.028;12.064;2023-11-19T06:54:51;96976.28;;;7.65
19102;BMP280;9683;49.028;12.064;2023-11-19T06:57:18;96944.59;;;7.46
19102;BMP280;9683;49.028;12.064;2023-11-19T06:59:45;96967.94;;;7.62
19102;BMP280;9683;49.028;12.064;2023-11-19T07:02:12;96959.66;;;7.45
19102;BMP280;9683;49.028;12.064;2023-11-19T07:04:41;96971.25;;;7.51
19102;BMP280;9683;49.028;12.064;2023-11-19T07:07:07;96977.97;;;7.47
19102;BMP280;9683;49.028;12.064;2023-11-19T07:09:35;96986.31;;;7.50
19102;BMP280;9683;49.028;12.064;2023-11-19T07:12:02;96979.19;;;7.51
19102;BMP280;9683;49.028;12.064;2023-11-19T07:14:30;96975.72;;;7.50
19102;BMP280;9683;49.028;12.064;2023-11-19T07:16:56;96986.69;;;7.54
19102;BMP280;9683;49.028;12.064;2023-11-19T07:19:23;96985.25;;;7.58
19102;BMP280;9683;49.028;12.064;2023-11-19T07:21:51;96984.63;;;7.62
19102;BMP280;9683;49.028;12.064;2023-11-19T07:24:19;96983.22;;;7.60
19102;BMP280;9683;49.028;12.064;2023-11-19T07:26:47;96988.72;;;7.58
19102;BMP280;9683;49.028;12.064;2023-11-19T07:29:14;96996.03;;;7.63
19102;BMP280;9683;49.028;12.064;2023-11-19T07:31:41;96999.69;;;7.62
19102;BMP280;9683;49.028;12.064;2023-11-19T07:34:09;97003.78;;;7.58
19102;BMP280;9683;49.028;12.064;2023-11-19T07:36:36;96982.88;;;7.43
19102;BMP280;9683;49.028;12.064;2023-11-19T07:39:05;97000.53;;;7.56
19102;BMP280;9683;49.028;12.064;2023-11-19T07:41:31;96993.63;;;7.55
19102;BMP280;9683;49.028;12.064;2023-11-19T07:43:58;96990.53;;;7.58
19102;BMP280;9683;49.028;12.064;2023-11-19T07:46:25;96993.41;;;7.56
19102;BMP280;9683;49.028;12.064;2023-11-19T07:48:52;96995.44;;;7.54
19102;BMP280;9683;49.028;12.064;2023-11-19T07:51:19;96993.22;;;7.51
19102;BMP280;9683;49.028;12.064;2023-11-19T07:53:45;96999.31;;;7.58
19102;BMP280;9683;49.028;12.064;2023-11-19T07:56:13;96999.69;;;7.62
19102;BMP280;9683;49.028;12.064;2023-11-19T07:58:40;97003.16;;;7.62
19102;BMP280;9683;49.028;12.064;2023-11-19T08:01:07;97009.88;;;7.65
19102;BMP280;9683;49.028;12.064;2023-11-19T08:03:33;97005.78;;;7.69
19102;BMP280;9683;49.028;12.064;2023-11-19T08:06:00;97006.59;;;7.69
19102;BMP280;9683;49.028;12.064;2023-11-19T08:08:27;97000.50;;;7.69
19102;BMP280;9683;49.028;12.064;2023-11-19T08:10:55;96997.03;;;7.68
19102;BMP280;9683;49.028;12.064;2023-11-19T08:13:23;97003.13;;;7.69
19102;BMP280;9683;49.028;12.064;2023-11-19T08:15:49;97002.13;;;7.70
19102;BMP280;9683;49.028;12.064;2023-11-19T08:18:16;97004.53;;;7.71
19102;BMP280;9683;49.028;12.064;2023-11-19T08:20:43;97005.34;;;7.72
19102;BMP280;9683;49.028;12.064;2023-11-19T08:23:10;97010.66;;;7.72
19102;BMP280;9683;49.028;12.064;2023-11-19T08:25:36;96993.94;;;7.71
19102;BMP280;9683;49.028;12.064;2023-11-19T08:28:04;96985.19;;;7.71
19102;BMP280;9683;49.028;12.064;2023-11-19T08:30:32;96988.63;;;7.78
19102;BMP280;9683;49.028;12.064;2023-11-19T08:32:58;96993.94;;;7.71
19102;BMP280;9683;49.028;12.064;2023-11-19T08:35:28;96985.22;;;7.64
19102;BMP280;9683;49.028;12.064;2023-11-19T08:37:55;96977.94;;;7.60
19102;BMP280;9683;49.028;12.064;2023-11-19T08:40:22;96996.22;;;7.68
19102;BMP280;9683;49.028;12.064;2023-11-19T08:42:49;96991.53;;;7.70
19102;BMP280;9683;49.028;12.064;2023-11-19T08:45:15;96995.97;;;7.76
19102;BMP280;9683;49.028;12.064;2023-11-19T08:47:43;97004.09;;;7.81
19102;BMP280;9683;49.028;12.064;2023-11-19T08:50:11;96965.84;;;7.70
19102;BMP280;9683;49.028;12.064;2023-11-19T08:52:37;96998.75;;;7.88
19102;BMP280;9683;49.028;12.064;2023-11-19T08:55:05;96995.69;;;7.91
19102;BMP280;9683;49.028;12.064;2023-11-19T08:57:31;96996.91;;;7.88
19102;BMP280;9683;49.028;12.064;2023-11-19T08:59:59;96994.88;;;7.90
19102;BMP280;9683;49.028;12.064;2023-11-19T09:02:26;96999.94;;;7.92
19102;BMP280;9683;49.028;12.064;2023-11-19T09:04:54;96997.72;;;7.95
19102;BMP280;9683;49.028;12.064;2023-11-19T09:07:20;96989.16;;;7.93
19102;BMP280;9683;49.028;12.064;2023-11-19T09:09:47;96994.00;;;7.96
19102;BMP280;9683;49.028;12.064;2023-11-19T09:12:14;96995.84;;;7.96
19102;BMP280;9683;49.028;12.064;2023-11-19T09:14:40;96989.75;;;7.95
19102;BMP280;9683;49.028;12.064;2023-11-19T09:17:07;96981.66;;;7.90
19102;BMP280;9683;49.028;12.064;2023-11-19T09:19:34;96981.81;;;7.95
19102;BMP280;9683;49.028;12.064;2023-11-19T09:22:02;96980.19;;;7.94
19102;BMP280;9683;49.028;12.064;2023-11-19T09:24:29;96986.13;;;7.90
19102;BMP280;9683;49.028;12.064;2023-11-19T09:26:56;96987.13;;;7.89
19102;BMP280;9683;49.028;12.064;2023-11-19T09:29:22;96974.34;;;7.86
19102;BMP280;9683;49.028;12.064;2023-11-19T09:31:49;96977.72;;;7.99
19102;BMP280;9683;49.028;12.064;2023-11-19T09:34:16;96967.53;;;7.96
19102;BMP280;9683;49.028;12.064;2023-11-19T09:36:43;96970.16;;;8.03
19102;BMP280;9683;49.028;12.064;2023-11-19T09:39:11;96980.25;;;8.12
19102;BMP280;9683;49.028;12.064;2023-11-19T09:41:40;96984.34;;;8.15
19102;BMP280;9683;49.028;12.064;2023-11-19T09:44:07;96987.38;;;8.18
19102;BMP280;9683;49.028;12.064;2023-11-19T09:46:34;96975.69;;;8.26
19102;BMP280;9683;49.028;12.064;2023-11-19T09:49:02;96968.31;;;8.35
19102;BMP280;9683;49.028;12.064;2023-11-19T09:51:30;96945.09;;;8.30
19102;BMP280;9683;49.028;12.064;2023-11-19T09:53:56;96964.09;;;8.52
19102;BMP280;9683;49.028;12.064;2023-11-19T09:56:25;96956.03;;;8.65
19102;BMP280;9683;49.028;12.064;2023-11-19T09:58:53;96966.16;;;8.74
19102;BMP280;9683;49.028;12.064;2023-11-19T10:01:19;96963.44;;;8.81
19102;BMP280;9683;49.028;12.064;2023-11-19T10:03:47;96953.72;;;8.93
19102;BMP280;9683;49.028;12.064;2023-11-19T10:06:14;96972.34;;;9.05
19102;BMP280;9683;49.028;12.064;2023-11-19T10:08:41;96968.25;;;9.09
19102;BMP280;9683;49.028;12.064;2023-11-19T10:11:08;96969.97;;;9.22
19102;BMP280;9683;49.028;12.064;2023-11-19T10:13:38;96964.56;;;9.28
19102;BMP280;9683;49.028;12.064;2023-11-19T10:16:08;96937.00;;;9.29
19102;BMP280;9683;49.028;12.064;2023-11-19T10:18:36;96955.84;;;9.39
19102;BMP280;9683;49.028;12.064;2023-11-19T10:21:04;96946.19;;;9.45
19102;BMP280;9683;49.028;12.064;2023-11-19T10:23:47;96946.91;;;9.52
19102;BMP280;9683;49.028;12.064;2023-11-19T10:26:14;96945.88;;;9.53
19102;BMP280;9683;49.028;12.064;2023-11-19T10:28:42;96937.25;;;9.57
19102;BMP280;9683;49.028;12.064;2023-11-19T10:31:11;96939.22;;;9.62
19102;BMP280;9683;49.028;12.064;2023-11-19T10:33:38;96942.47;;;9.64
19102;BMP280;9683;49.028;12.064;2023-11-19T10:36:05;96946.88;;;9.70
19102;BMP280;9683;49.028;12.064;2023-11-19T10:38:32;96941.56;;;9.70
19102;BMP280;9683;49.028;12.064;2023-11-19T10:40:58;96914.50;;;9.61
19102;BMP280;9683;49.028;12.064;2023-11-19T10:43:25;96935.94;;;9.78
19102;BMP280;9683;49.028;12.064;2023-11-19T10:45:54;96931.78;;;9.82
19102;BMP280;9683;49.028;12.064;2023-11-19T10:48:34;96925.44;;;9.83
19102;BMP280;9683;49.028;12.064;2023-11-19T10:51:04;96920.84;;;9.90
19102;BMP280;9683;49.028;12.064;2023-11-19T10:53:33;96915.06;;;9.93
19102;BMP280;9683;49.028;12.064;2023-11-19T10:56:04;96929.41;;;9.92
19102;BMP280;9683;49.028;12.064;2023-11-19T10:58:35;96929.06;;;9.89
19102;BMP280;9683;49.028;12.064;2023-11-19T11:01:09;96921.09;;;9.89
19102;BMP280;9683;49.028;12.064;2023-11-19T11:03:39;96910.56;;;9.94
19102;BMP280;9683;49.028;12.064;2023-11-19T11:06:06;96915.44;;;9.97
19102;BMP280;9683;49.028;12.064;2023-11-19T11:08:36;96910.25;;;10.02
19102;BMP280;9683;49.028;12.064;2023-11-19T11:11:04;96913.84;;;10.07
19102;BMP280;9683;49.028;12.064;2023-11-19T11:13:31;96911.53;;;10.11
19102;BMP280;9683;49.028;12.064;2023-11-19T11:15:59;96905.41;;;10.10
19102;BMP280;9683;49.028;12.064;2023-11-19T11:18:27;96911.88;;;10.14
19102;BMP280;9683;49.028;12.064;2023-11-19T11:20:57;96916.53;;;10.19
19102;BMP280;9683;49.028;12.064;2023-11-19T11:23:37;96918.53;;;10.24
19102;BMP280;9683;49.028;12.064;2023-11-19T11:26:24;96912.78;;;10.27
19102;BMP280;9683;49.028;12.064;2023-11-19T11:28:59;96905.13;;;10.30
19102;BMP280;9683;49.028;12.064;2023-11-19T11:31:36;96907.34;;;10.33
19102;BMP280;9683;49.028;12.064;2023-11-19T11:34:21;96902.34;;;10.37
19102;BMP280;9683;49.028;12.064;2023-11-19T11:36:58;96911.50;;;10.41
19102;BMP280;9683;49.028;12.064;2023-11-19T11:39:29;96910.81;;;10.45
19102;BMP280;9683;49.028;12.064;2023-11-19T11:45:00;96898.78;;;10.54
19102;BMP280;9683;49.028;12.064;2023-11-19T11:50:30;96896.22;;;10.83
19102;BMP280;9683;49.028;12.064;2023-11-19T11:53:14;96885.69;;;10.88
19102;BMP280;9683;49.028;12.064;2023-11-19T11:55:55;96895.97;;;10.96
19102;BMP280;9683;49.028;12.064;2023-11-19T11:58:30;96897.13;;;11.00
19102;BMP280;9683;49.028;12.064;2023-11-19T12:00:58;96891.31;;;11.03
19102;BMP280;9683;49.028;12.064;2023-11-19T12:03:27;96891.09;;;11.04
19102;BMP280;9683;49.028;12.064;2023-11-19T12:05:55;96860.06;;;10.98
19102;BMP280;9683;49.028;12.064;2023-11-19T12:08:25;96875.91;;;11.17
19102;BMP280;9683;49.028;12.064;2023-11-19T12:10:56;96875.69;;;11.18
19102;BMP280;9683;49.028;12.064;2023-11-19T12:13:24;96875.53;;;11.25
19102;BMP280;9683;49.028;12.064;2023-11-19T12:16:09;96876.53;;;11.35
19102;BMP280;9683;49.028;12.064;2023-11-19T12:18:38;96865.75;;;11.42
19102;BMP280;9683;49.028;12.064;2023-11-19T12:21:07;96858.06;;;11.45
19102;BMP280;9683;49.028;12.064;2023-11-19T12:23:34;96857.38;;;11.50
19102;BMP280;9683;49.028;12.064;2023-11-19T12:26:01;96853.50;;;11.58
19102;BMP280;9683;49.028;12.064;2023-11-19T12:28:29;96849.66;;;11.65
19102;BMP280;9683;49.028;12.064;2023-11-19T12:31:07;96849.13;;;11.80
19102;BMP280;9683;49.028;12.064;2023-11-19T12:33:35;96845.34;;;11.92
19102;BMP280;9683;49.028;12.064;2023-11-19T12:36:02;96842.06;;;12.02
19102;BMP280;9683;49.028;12.064;2023-11-19T12:38:31;96849.97;;;12.14
19102;BMP280;9683;49.028;12.064;2023-11-19T12:41:06;96833.00;;;12.20
19102;BMP280;9683;49.028;12.064;2023-11-19T12:43:33;96842.59;;;12.37
19102;BMP280;9683;49.028;12.064;2023-11-19T12:46:01;96832.88;;;12.48
19102;BMP280;9683;49.028;12.064;2023-11-19T12:48:28;96844.75;;;12.57
19102;BMP280;9683;49.028;12.064;2023-11-19T12:50:56;96844.34;;;12.65
19102;BMP280;9683;49.028;12.064;2023-11-19T12:53:23;96836.13;;;12.72
19102;BMP280;9683;49.028;12.064;2023-11-19T12:55:51;96829.81;;;12.78
19102;BMP280;9683;49.028;12.064;2023-11-19T12:58:28;96827.25;;;12.88
19102;BMP280;9683;49.028;12.064;2023-11-19T13:00:59;96838.91;;;12.99
19102;BMP280;9683;49.028;12.064;2023-11-19T13:03:30;96823.47;;;13.06
19102;BMP280;9683;49.028;12.064;2023-11-19T13:06:04;96800.50;;;13.05
19102;BMP280;9683;49.028;12.064;2023-11-19T13:08:36;96816.16;;;13.18
19102;BMP280;9683;49.028;12.064;2023-11-19T13:11:05;96809.53;;;13.20
19102;BMP280;9683;49.028;12.064;2023-11-19T13:13:33;96816.00;;;13.24
19102;BMP280;9683;49.028;12.064;2023-11-19T13:16:04;96814.50;;;13.34
19102;BMP280;9683;49.028;12.064;2023-11-19T13:18:31;96815.03;;;13.36
19102;BMP280;9683;49.028;12.064;2023-11-19T13:20:58;96816.44;;;13.43
19102;BMP280;9683;49.028;12.064;2023-11-19T13:23:24;96813.59;;;13.50
19102;BMP280;9683;49.028;12.064;2023-11-19T13:25:51;96816.34;;;13.60
19102;BMP280;9683;49.028;12.064;2023-11-19T13:28:19;96826.91;;;13.71
19102;BMP280;9683;49.028;12.064;2023-11-19T13:30:45;96805.03;;;13.80
19102;BMP280;9683;49.028;12.064;2023-11-19T13:33:12;96804.31;;;13.89
19102;BMP280;9683;49.028;12.064;2023-11-19T13:35:39;96807.94;;;14.05
19102;BMP280;9683;49.028;12.064;2023-11-19T13:38:06;96786.56;;;14.15
19102;BMP280;9683;49.028;12.064;2023-11-19T13:40:34;96795.50;;;14.26
19102;BMP280;9683;49.028;12.064;2023-11-19T13:43:00;96800.94;;;14.36
19102;BMP280;9683;49.028;12.064;2023-11-19T13:45:28;96788.69;;;14.45
19102;BMP280;9683;49.028;12.064;2023-11-19T13:47:55;96791.41;;;14.50
19102;BMP280;9683;49.028;12.064;2023-11-19T13:50:21;96790.91;;;14.58
19102;BMP280;9683;49.028;12.064;2023-11-19T13:52:48;96797.09;;;14.63
19102;BMP280;9683;49.028;12.064;2023-11-19T13:55:15;96799.00;;;14.68
19102;BMP280;9683;49.028;12.064;2023-11-19T13:57:42;96783.22;;;14.72
19102;BMP280;9683;49.028;12.064;2023-11-19T14:00:10;96767.66;;;14.68
19102;BMP280;9683;49.028;12.064;2023-11-19T14:02:39;96781.38;;;14.82
19102;BMP280;9683;49.028;12.064;2023-11-19T14:05:06;96793.72;;;14.88
19102;BMP280;9683;49.028;12.064;2023-11-19T14:07:33;96783.25;;;14.87
19102;BMP280;9683;49.028;12.064;2023-11-19T14:10:00;96779.28;;;14.89
19102;BMP280;9683;49.028;12.064;2023-11-19T14:12:26;96776.59;;;14.89
19102;BMP280;9683;49.028;12.064;2023-11-19T14:14:53;96789.75;;;15.01
19102;BMP280;9683;49.028;12.064;2023-11-19T14:17:20;96802.63;;;15.04
19102;BMP280;9683;49.028;12.064;2023-11-19T14:19:48;96779.31;;;15.04
19102;BMP280;9683;49.028;12.064;2023-11-19T14:22:15;96781.47;;;15.02
19102;BMP280;9683;49.028;12.064;2023-11-19T14:24:41;96789.00;;;15.10
19102;BMP280;9683;49.028;12.064;2023-11-19T14:27:08;96793.03;;;15.13
19102;BMP280;9683;49.028;12.064;2023-11-19T14:29:35;96797.03;;;15.10